sensor_id;sensor_type;location;lat;lon;timestamp;pressure;altitude;pressure_sealevel;temperature;humidity
66495;BME280;53319;51.982;5.916;2022-07-10T00:00:12;102581.72;;;20.42;73.98
66495;BME280;53319;51.982;5.916;2022-07-10T00:02:44;102584.31;;;20.27;76.41
66495;BME280;53319;51.982;5.916;2022-07-10T00:05:13;102580.91;;;20.25;77.12
66495;BME280;53319;51.982;5.916;2022-07-10T00:07:44;102588.25;;;20.52;75.55
66495;BME280;53319;51.982;5.916;2022-07-10T00:10:13;102588.91;;;20.55;76.08
66495;BME280;53319;51.982;5.916;2022-07-10T00:12:43;102595.19;;;20.54;76.22
66495;BME280;53319;51.982;5.916;2022-07-10T00:15:12;102590.47;;;20.90;74.79
66495;BME280;53319;51.982;5.916;2022-07-10T00:17:42;102591.50;;;20.87;73.89
66495;BME280;53319;51.982;5.916;2022-07-10T00:20:12;102586.97;;;21.04;73.17
66495;BME280;53319;51.982;5.916;2022-07-10T00:22:44;102597.75;;;21.02;73.98
66495;BME280;53319;51.982;5.916;2022-07-10T00:25:13;102582.94;;;20.36;77.55
66495;BME280;53319;51.982;5.916;2022-07-10T00:27:42;102582.53;;;20.74;75.32
66495;BME280;53319;51.982;5.916;2022-07-10T00:30:11;102581.22;;;20.81;76.02
66495;BME280;53319;51.982;5.916;2022-07-10T00:32:40;102585.44;;;21.00;75.28
66495;BME280;53319;51.982;5.916;2022-07-10T00:35:09;102593.31;;;20.87;74.16
66495;BME280;53319;51.982;5.916;2022-07-10T00:37:38;102584.59;;;20.85;75.04
66495;BME280;53319;51.982;5.916;2022-07-10T00:40:10;102583.06;;;20.95;74.16
66495;BME280;53319;51.982;5.916;2022-07-10T00:42:39;102587.72;;;20.91;74.22
66495;BME280;53319;51.982;5.916;2022-07-10T00:45:09;102573.38;;;21.08;73.16
66495;BME280;53319;51.982;5.916;2022-07-10T00:47:38;102576.53;;;21.15;73.55
66495;BME280;53319;51.982;5.916;2022-07-10T00:50:07;102573.03;;;21.29;72.22
66495;BME280;53319;51.982;5.916;2022-07-10T00:52:38;102571.09;;;21.31;71.25
66495;BME280;53319;51.982;5.916;2022-07-10T00:55:10;102571.00;;;21.33;71.34
66495;BME280;53319;51.982;5.916;2022-07-10T00:57:40;102567.59;;;21.31;70.62
66495;BME280;53319;51.982;5.916;2022-07-10T01:00:09;102573.66;;;21.33;71.53
66495;BME280;53319;51.982;5.916;2022-07-10T01:02:41;102566.50;;;21.19;70.85
66495;BME280;53319;51.982;5.916;2022-07-10T01:05:10;102567.09;;;20.49;74.78
66495;BME280;53319;51.982;5.916;2022-07-10T01:07:39;102558.53;;;19.97;79.66
66495;BME280;53319;51.982;5.916;2022-07-10T01:10:11;102552.63;;;20.38;76.77
66495;BME280;53319;51.982;5.916;2022-07-10T01:12:40;102556.41;;;20.50;76.09
66495;BME280;53319;51.982;5.916;2022-07-10T01:15:09;102556.91;;;20.41;76.02
66495;BME280;53319;51.982;5.916;2022-07-10T01:17:38;102561.72;;;20.50;76.13
66495;BME280;53319;51.982;5.916;2022-07-10T01:20:09;102557.06;;;20.54;75.68
66495;BME280;53319;51.982;5.916;2022-07-10T01:22:40;102545.06;;;20.47;77.06
66495;BME280;53319;51.982;5.916;2022-07-10T01:25:10;102550.28;;;20.48;77.77
66495;BME280;53319;51.982;5.916;2022-07-10T01:27:39;102544.69;;;20.07;79.49
66495;BME280;53319;51.982;5.916;2022-07-10T01:30:09;102536.63;;;19.76;81.19
66495;BME280;53319;51.982;5.916;2022-07-10T01:32:39;102529.47;;;20.09;78.90
66495;BME280;53319;51.982;5.916;2022-07-10T01:35:09;102536.69;;;20.22;77.86
66495;BME280;53319;51.982;5.916;2022-07-10T01:37:41;102532.00;;;19.80;80.03
66495;BME280;53319;51.982;5.916;2022-07-10T01:40:11;102528.38;;;19.97;79.61
66495;BME280;53319;51.982;5.916;2022-07-10T01:42:40;102533.38;;;19.87;79.82
66495;BME280;53319;51.982;5.916;2022-07-10T01:45:10;102530.16;;;20.28;77.33
66495;BME280;53319;51.982;5.916;2022-07-10T01:47:39;102533.66;;;20.45;76.76
66495;BME280;53319;51.982;5.916;2022-07-10T01:50:09;102528.13;;;20.48;75.11
66495;BME280;53319;51.982;5.916;2022-07-10T01:52:41;102527.09;;;20.50;74.47
66495;BME280;53319;51.982;5.916;2022-07-10T01:55:10;102526.22;;;20.19;75.55
66495;BME280;53319;51.982;5.916;2022-07-10T01:57:39;102528.03;;;20.49;75.61
66495;BME280;53319;51.982;5.916;2022-07-10T02:00:09;102525.19;;;20.52;74.47
66495;BME280;53319;51.982;5.916;2022-07-10T02:02:38;102534.72;;;20.56;74.45
66495;BME280;53319;51.982;5.916;2022-07-10T02:05:27;102529.31;;;20.28;75.99
66495;BME280;53319;51.982;5.916;2022-07-10T02:07:56;102525.91;;;20.40;75.01
66495;BME280;53319;51.982;5.916;2022-07-10T02:10:25;102527.75;;;20.54;74.21
66495;BME280;53319;51.982;5.916;2022-07-10T02:12:54;102521.94;;;20.47;74.06
66495;BME280;53319;51.982;5.916;2022-07-10T02:15:23;102525.91;;;20.40;75.40
66495;BME280;53319;51.982;5.916;2022-07-10T02:17:52;102521.44;;;20.40;74.72
66495;BME280;53319;51.982;5.916;2022-07-10T02:20:21;102521.34;;;20.42;74.88
66495;BME280;53319;51.982;5.916;2022-07-10T02:22:50;102520.66;;;20.08;76.17
66495;BME280;53319;51.982;5.916;2022-07-10T02:25:21;102518.50;;;20.15;75.65
66495;BME280;53319;51.982;5.916;2022-07-10T02:27:50;102521.63;;;20.37;74.85
66495;BME280;53319;51.982;5.916;2022-07-10T02:30:19;102515.56;;;20.50;74.13
66495;BME280;53319;51.982;5.916;2022-07-10T02:32:48;102504.19;;;20.62;74.31
66495;BME280;53319;51.982;5.916;2022-07-10T02:35:17;102507.78;;;20.61;74.16
66495;BME280;53319;51.982;5.916;2022-07-10T02:37:46;102488.13;;;20.64;74.13
66495;BME280;53319;51.982;5.916;2022-07-10T02:40:14;102492.97;;;20.27;76.67
66495;BME280;53319;51.982;5.916;2022-07-10T02:42:46;102489.28;;;20.29;78.44
66495;BME280;53319;51.982;5.916;2022-07-10T02:45:15;102482.63;;;20.36;76.99
66495;BME280;53319;51.982;5.916;2022-07-10T02:47:44;102484.53;;;20.34;79.40
66495;BME280;53319;51.982;5.916;2022-07-10T02:50:13;102485.75;;;20.59;78.38
66495;BME280;53319;51.982;5.916;2022-07-10T02:52:42;102484.00;;;20.44;77.17
66495;BME280;53319;51.982;5.916;2022-07-10T02:55:10;102492.28;;;20.53;77.54
66495;BME280;53319;51.982;5.916;2022-07-10T02:57:39;102492.41;;;20.36;78.40
66495;BME280;53319;51.982;5.916;2022-07-10T03:00:12;102485.16;;;20.54;78.42
66495;BME280;53319;51.982;5.916;2022-07-10T03:02:41;102498.06;;;20.46;79.66
66495;BME280;53319;51.982;5.916;2022-07-10T03:05:10;102507.47;;;20.51;78.68
66495;BME280;53319;51.982;5.916;2022-07-10T03:07:38;102501.94;;;20.40;79.70
66495;BME280;53319;51.982;5.916;2022-07-10T03:10:08;102500.88;;;20.28;80.84
66495;BME280;53319;51.982;5.916;2022-07-10T03:12:37;102500.53;;;20.49;81.31
66495;BME280;53319;51.982;5.916;2022-07-10T03:15:07;102509.88;;;20.56;79.56
66495;BME280;53319;51.982;5.916;2022-07-10T03:17:39;102504.97;;;20.34;80.62
66495;BME280;53319;51.982;5.916;2022-07-10T03:20:09;102505.47;;;19.94;82.14
66495;BME280;53319;51.982;5.916;2022-07-10T03:22:38;102505.78;;;20.20;81.60
66495;BME280;53319;51.982;5.916;2022-07-10T03:25:08;102508.47;;;20.04;82.55
66495;BME280;53319;51.982;5.916;2022-07-10T03:27:37;102503.41;;;19.99;83.21
66495;BME280;53319;51.982;5.916;2022-07-10T03:30:07;102505.91;;;19.86;83.99
66495;BME280;53319;51.982;5.916;2022-07-10T03:32:39;102505.00;;;20.18;82.06
66495;BME280;53319;51.982;5.916;2022-07-10T03:35:08;102499.66;;;19.87;84.32
66495;BME280;53319;51.982;5.916;2022-07-10T03:37:37;102501.53;;;19.85;84.29
66495;BME280;53319;51.982;5.916;2022-07-10T03:40:07;102496.13;;;19.87;83.30
66495;BME280;53319;51.982;5.916;2022-07-10T03:42:36;102490.38;;;19.95;83.43
66495;BME280;53319;51.982;5.916;2022-07-10T03:45:06;102488.81;;;19.75;84.10
66495;BME280;53319;51.982;5.916;2022-07-10T03:47:35;102492.81;;;20.14;82.96
66495;BME280;53319;51.982;5.916;2022-07-10T03:50:07;102497.53;;;20.25;81.58
66495;BME280;53319;51.982;5.916;2022-07-10T03:52:36;102491.41;;;19.92;84.31
66495;BME280;53319;51.982;5.916;2022-07-10T03:55:06;102489.47;;;20.26;82.90
66495;BME280;53319;51.982;5.916;2022-07-10T03:57:35;102494.06;;;20.53;81.08
66495;BME280;53319;51.982;5.916;2022-07-10T04:00:16;102490.78;;;20.03;83.82
66495;BME280;53319;51.982;5.916;2022-07-10T04:02:45;102491.34;;;20.24;82.41
66495;BME280;53319;51.982;5.916;2022-07-10T04:05:17;102492.97;;;19.80;85.45
66495;BME280;53319;51.982;5.916;2022-07-10T04:07:46;102483.53;;;19.91;85.48
66495;BME280;53319;51.982;5.916;2022-07-10T04:10:15;102481.09;;;20.02;85.04
66495;BME280;53319;51.982;5.916;2022-07-10T04:12:44;102482.63;;;19.26;90.26
66495;BME280;53319;51.982;5.916;2022-07-10T04:15:13;102477.75;;;19.50;89.13
66495;BME280;53319;51.982;5.916;2022-07-10T04:17:42;102475.19;;;19.81;87.28
66495;BME280;53319;51.982;5.916;2022-07-10T04:20:11;102476.53;;;20.04;86.65
66495;BME280;53319;51.982;5.916;2022-07-10T04:22:43;102486.59;;;19.99;85.79
66495;BME280;53319;51.982;5.916;2022-07-10T04:25:12;102489.41;;;19.96;85.51
66495;BME280;53319;51.982;5.916;2022-07-10T04:27:41;102488.06;;;19.88;86.29
66495;BME280;53319;51.982;5.916;2022-07-10T04:30:11;102485.75;;;19.82;87.21
66495;BME280;53319;51.982;5.916;2022-07-10T04:32:39;102489.19;;;20.00;85.19
66495;BME280;53319;51.982;5.916;2022-07-10T04:35:08;102488.09;;;20.19;83.94
66495;BME280;53319;51.982;5.916;2022-07-10T04:37:37;102481.09;;;20.02;84.45
66495;BME280;53319;51.982;5.916;2022-07-10T04:40:10;102482.00;;;20.17;84.25
66495;BME280;53319;51.982;5.916;2022-07-10T04:42:39;102484.19;;;20.40;83.31
66495;BME280;53319;51.982;5.916;2022-07-10T04:45:09;102485.16;;;20.23;82.62
66495;BME280;53319;51.982;5.916;2022-07-10T04:47:38;102481.63;;;20.23;83.01
66495;BME280;53319;51.982;5.916;2022-07-10T04:50:08;102474.47;;;20.09;83.44
66495;BME280;53319;51.982;5.916;2022-07-10T04:52:37;102480.22;;;20.17;83.29
66495;BME280;53319;51.982;5.916;2022-07-10T04:55:09;102478.72;;;20.28;82.66
66495;BME280;53319;51.982;5.916;2022-07-10T04:57:38;102478.34;;;20.34;82.56
66495;BME280;53319;51.982;5.916;2022-07-10T05:00:11;102481.75;;;20.36;81.12
66495;BME280;53319;51.982;5.916;2022-07-10T05:02:40;102489.06;;;19.70;86.27
66495;BME280;53319;51.982;5.916;2022-07-10T05:05:09;102478.38;;;19.87;85.31
66495;BME280;53319;51.982;5.916;2022-07-10T05:07:38;102476.44;;;20.05;84.20
66495;BME280;53319;51.982;5.916;2022-07-10T05:10:09;102482.63;;;20.06;85.37
66495;BME280;53319;51.982;5.916;2022-07-10T05:12:38;102482.13;;;19.99;83.61
66495;BME280;53319;51.982;5.916;2022-07-10T05:15:08;102482.56;;;20.08;83.31
66495;BME280;53319;51.982;5.916;2022-07-10T05:17:37;102488.81;;;20.37;82.90
66495;BME280;53319;51.982;5.916;2022-07-10T05:20:07;102492.16;;;20.40;81.13
66495;BME280;53319;51.982;5.916;2022-07-10T05:22:36;102481.13;;;19.86;85.80
66495;BME280;53319;51.982;5.916;2022-07-10T05:25:05;102489.06;;;19.54;86.77
66495;BME280;53319;51.982;5.916;2022-07-10T05:27:37;102482.91;;;19.69;88.09
66495;BME280;53319;51.982;5.916;2022-07-10T05:30:07;102485.38;;;19.41;90.33
66495;BME280;53319;51.982;5.916;2022-07-10T05:32:42;102495.25;;;20.02;86.91
66495;BME280;53319;51.982;5.916;2022-07-10T05:35:11;102487.50;;;20.14;85.52
66495;BME280;53319;51.982;5.916;2022-07-10T05:37:40;102485.22;;;20.38;84.13
66495;BME280;53319;51.982;5.916;2022-07-10T05:40:10;102486.78;;;20.56;83.36
66495;BME280;53319;51.982;5.916;2022-07-10T05:42:41;102487.22;;;20.49;83.46
66495;BME280;53319;51.982;5.916;2022-07-10T05:45:10;102483.41;;;20.53;82.13
66495;BME280;53319;51.982;5.916;2022-07-10T05:47:39;102499.13;;;20.43;83.27
66495;BME280;53319;51.982;5.916;2022-07-10T05:50:09;102493.13;;;20.54;82.53
66495;BME280;53319;51.982;5.916;2022-07-10T05:52:38;102492.41;;;20.66;81.72
66495;BME280;53319;51.982;5.916;2022-07-10T05:55:07;102494.69;;;20.28;84.49
66495;BME280;53319;51.982;5.916;2022-07-10T05:57:37;102490.41;;;20.25;85.42
66495;BME280;53319;51.982;5.916;2022-07-10T06:00:09;102491.41;;;19.92;88.27
66495;BME280;53319;51.982;5.916;2022-07-10T06:02:38;102490.56;;;19.92;90.08
66495;BME280;53319;51.982;5.916;2022-07-10T06:05:08;102494.28;;;20.19;87.50
66495;BME280;53319;51.982;5.916;2022-07-10T06:07:37;102495.59;;;20.12;88.71
66495;BME280;53319;51.982;5.916;2022-07-10T06:10:07;102498.75;;;20.49;85.78
66495;BME280;53319;51.982;5.916;2022-07-10T06:12:36;102497.34;;;20.58;84.73
66495;BME280;53319;51.982;5.916;2022-07-10T06:15:09;102505.91;;;20.33;88.08
66495;BME280;53319;51.982;5.916;2022-07-10T06:17:38;102503.81;;;20.23;90.66
66495;BME280;53319;51.982;5.916;2022-07-10T06:20:09;102502.44;;;20.16;94.80
66495;BME280;53319;51.982;5.916;2022-07-10T06:22:38;102498.75;;;20.19;96.61
66495;BME280;53319;51.982;5.916;2022-07-10T06:25:08;102506.19;;;20.28;95.33
66495;BME280;53319;51.982;5.916;2022-07-10T06:27:37;102497.91;;;20.02;98.74
66495;BME280;53319;51.982;5.916;2022-07-10T06:30:10;102503.97;;;19.25;100.00
66495;BME280;53319;51.982;5.916;2022-07-10T06:32:39;102512.50;;;19.47;100.00
66495;BME280;53319;51.982;5.916;2022-07-10T06:35:10;102511.75;;;19.77;100.00
66495;BME280;53319;51.982;5.916;2022-07-10T06:37:39;102512.56;;;20.10;100.00
66495;BME280;53319;51.982;5.916;2022-07-10T06:40:11;102517.19;;;20.22;100.00
66495;BME280;53319;51.982;5.916;2022-07-10T06:42:41;102513.25;;;19.65;100.00
66495;BME280;53319;51.982;5.916;2022-07-10T06:45:13;102506.16;;;19.66;100.00
66495;BME280;53319;51.982;5.916;2022-07-10T06:47:42;102501.44;;;19.39;100.00
66495;BME280;53319;51.982;5.916;2022-07-10T06:50:27;102511.63;;;19.63;100.00
66495;BME280;53319;51.982;5.916;2022-07-10T06:53:01;102509.75;;;19.65;100.00
66495;BME280;53319;51.982;5.916;2022-07-10T06:55:30;102520.22;;;19.68;100.00
66495;BME280;53319;51.982;5.916;2022-07-10T06:57:59;102508.59;;;19.86;100.00
66495;BME280;53319;51.982;5.916;2022-07-10T07:00:31;102514.41;;;19.93;100.00
66495;BME280;53319;51.982;5.916;2022-07-10T07:03:00;102514.00;;;19.85;100.00
66495;BME280;53319;51.982;5.916;2022-07-10T07:05:29;102518.59;;;19.81;100.00
66495;BME280;53319;51.982;5.916;2022-07-10T07:07:58;102514.81;;;19.38;100.00
66495;BME280;53319;51.982;5.916;2022-07-10T07:10:26;102510.78;;;19.46;100.00
66495;BME280;53319;51.982;5.916;2022-07-10T07:12:55;102515.84;;;19.51;100.00
66495;BME280;53319;51.982;5.916;2022-07-10T07:15:25;102509.97;;;19.28;100.00
66495;BME280;53319;51.982;5.916;2022-07-10T07:17:57;102511.66;;;19.13;100.00
66495;BME280;53319;51.982;5.916;2022-07-10T07:20:34;102521.88;;;18.88;100.00
66495;BME280;53319;51.982;5.916;2022-07-10T07:23:15;102515.75;;;19.03;100.00
66495;BME280;53319;51.982;5.916;2022-07-10T07:25:44;102507.66;;;19.22;100.00
66495;BME280;53319;51.982;5.916;2022-07-10T07:28:15;102506.72;;;19.23;100.00
66495;BME280;53319;51.982;5.916;2022-07-10T07:30:45;102519.00;;;19.42;100.00
66495;BME280;53319;51.982;5.916;2022-07-10T07:33:16;102519.47;;;19.66;100.00
66495;BME280;53319;51.982;5.916;2022-07-10T07:35:45;102519.72;;;19.77;100.00
66495;BME280;53319;51.982;5.916;2022-07-10T07:38:14;102514.72;;;19.39;100.00
66495;BME280;53319;51.982;5.916;2022-07-10T07:40:43;102521.38;;;19.14;100.00
66495;BME280;53319;51.982;5.916;2022-07-10T07:43:12;102526.50;;;19.17;100.00
66495;BME280;53319;51.982;5.916;2022-07-10T07:45:41;102526.00;;;19.27;100.00
66495;BME280;53319;51.982;5.916;2022-07-10T07:48:10;102525.13;;;19.10;100.00
66495;BME280;53319;51.982;5.916;2022-07-10T07:50:41;102519.22;;;19.21;100.00
66495;BME280;53319;51.982;5.916;2022-07-10T07:53:10;102527.16;;;19.39;100.00
66495;BME280;53319;51.982;5.916;2022-07-10T07:55:39;102527.09;;;19.72;100.00
66495;BME280;53319;51.982;5.916;2022-07-10T07:58:08;102523.84;;;19.83;100.00
66495;BME280;53319;51.982;5.916;2022-07-10T08:00:37;102520.22;;;19.68;100.00
66495;BME280;53319;51.982;5.916;2022-07-10T08:03:06;102511.75;;;19.77;100.00
66495;BME280;53319;51.982;5.916;2022-07-10T08:05:35;102520.66;;;19.44;100.00
66495;BME280;53319;51.982;5.916;2022-07-10T08:08:06;102514.38;;;19.45;100.00
66495;BME280;53319;51.982;5.916;2022-07-10T08:10:36;102509.50;;;19.04;100.00
66495;BME280;53319;51.982;5.916;2022-07-10T08:13:05;102519.28;;;19.04;100.00
66495;BME280;53319;51.982;5.916;2022-07-10T08:15:34;102505.38;;;19.32;100.00
66495;BME280;53319;51.982;5.916;2022-07-10T08:18:03;102514.38;;;19.61;100.00
66495;BME280;53319;51.982;5.916;2022-07-10T08:20:33;102513.53;;;19.93;100.00
66495;BME280;53319;51.982;5.916;2022-07-10T08:23:02;102517.47;;;20.17;100.00
66495;BME280;53319;51.982;5.916;2022-07-10T08:25:33;102517.88;;;20.26;100.00
66495;BME280;53319;51.982;5.916;2022-07-10T08:28:03;102524.31;;;20.21;100.00
66495;BME280;53319;51.982;5.916;2022-07-10T08:30:32;102527.34;;;20.15;100.00
66495;BME280;53319;51.982;5.916;2022-07-10T08:33:01;102526.66;;;20.12;100.00
66495;BME280;53319;51.982;5.916;2022-07-10T08:35:30;102517.22;;;19.90;100.00
66495;BME280;53319;51.982;5.916;2022-07-10T08:37:59;102521.84;;;19.54;100.00
66495;BME280;53319;51.982;5.916;2022-07-10T08:40:36;102521.19;;;19.99;100.00
66495;BME280;53319;51.982;5.916;2022-07-10T08:43:05;102520.94;;;20.03;100.00
66495;BME280;53319;51.982;5.916;2022-07-10T08:45:34;102520.63;;;20.24;100.00
66495;BME280;53319;51.982;5.916;2022-07-10T08:48:04;102525.56;;;20.46;100.00
66495;BME280;53319;51.982;5.916;2022-07-10T08:50:38;102521.94;;;20.47;100.00
66495;BME280;53319;51.982;5.916;2022-07-10T08:53:13;102522.44;;;20.23;100.00
66495;BME280;53319;51.982;5.916;2022-07-10T08:55:48;102513.13;;;20.00;100.00
66495;BME280;53319;51.982;5.916;2022-07-10T08:58:18;102517.34;;;20.35;100.00
66495;BME280;53319;51.982;5.916;2022-07-10T09:00:48;102512.16;;;20.17;100.00
66495;BME280;53319;51.982;5.916;2022-07-10T09:03:17;102511.28;;;20.47;100.00
66495;BME280;53319;51.982;5.916;2022-07-10T09:05:46;102501.97;;;20.54;100.00
66495;BME280;53319;51.982;5.916;2022-07-10T09:08:23;102501.78;;;21.02;100.00
66495;BME280;53319;51.982;5.916;2022-07-10T09:11:12;102505.09;;;21.06;100.00
66495;BME280;53319;51.982;5.916;2022-07-10T09:13:51;102511.41;;;20.90;100.00
66495;BME280;53319;51.982;5.916;2022-07-10T09:16:22;102500.34;;;20.97;100.00
66495;BME280;53319;51.982;5.916;2022-07-10T09:18:51;102502.94;;;20.98;100.00
66495;BME280;53319;51.982;5.916;2022-07-10T09:21:21;102495.56;;;20.87;100.00
66495;BME280;53319;51.982;5.916;2022-07-10T09:23:50;102506.84;;;21.07;100.00
66495;BME280;53319;51.982;5.916;2022-07-10T09:26:21;102495.09;;;21.38;100.00
66495;BME280;53319;51.982;5.916;2022-07-10T09:28:53;102489.47;;;21.29;100.00
66495;BME280;53319;51.982;5.916;2022-07-10T09:31:48;102488.34;;;21.33;100.00
66495;BME280;53319;51.982;5.916;2022-07-10T09:34:17;102482.53;;;21.26;100.00
66495;BME280;53319;51.982;5.916;2022-07-10T09:36:46;102485.22;;;21.12;100.00
66495;BME280;53319;51.982;5.916;2022-07-10T09:39:15;102486.25;;;21.52;100.00
66495;BME280;53319;51.982;5.916;2022-07-10T09:41:46;102492.47;;;20.95;97.14
66495;BME280;53319;51.982;5.916;2022-07-10T09:44:15;102490.53;;;20.97;100.00
66495;BME280;53319;51.982;5.916;2022-07-10T09:46:44;102480.75;;;21.26;100.00
66495;BME280;53319;51.982;5.916;2022-07-10T09:49:14;102470.84;;;21.70;100.00
66495;BME280;53319;51.982;5.916;2022-07-10T09:51:45;102472.69;;;22.10;99.66
66495;BME280;53319;51.982;5.916;2022-07-10T09:54:14;102475.91;;;21.60;93.04
66495;BME280;53319;51.982;5.916;2022-07-10T09:56:47;102467.72;;;22.18;93.74
66495;BME280;53319;51.982;5.916;2022-07-10T09:59:19;102473.81;;;21.93;89.04
66495;BME280;53319;51.982;5.916;2022-07-10T10:01:49;102471.47;;;21.88;90.29
66495;BME280;53319;51.982;5.916;2022-07-10T10:04:19;102474.72;;;22.19;93.62
66495;BME280;53319;51.982;5.916;2022-07-10T10:06:51;102470.03;;;21.55;89.97
66495;BME280;53319;51.982;5.916;2022-07-10T10:09:24;102480.28;;;22.16;91.31
66495;BME280;53319;51.982;5.916;2022-07-10T10:11:57;102475.56;;;22.34;89.84
66495;BME280;53319;51.982;5.916;2022-07-10T10:14:29;102478.84;;;21.98;89.20
66495;BME280;53319;51.982;5.916;2022-07-10T10:16:59;102470.94;;;22.36;92.57
66495;BME280;53319;51.982;5.916;2022-07-10T10:19:30;102468.09;;;22.78;92.10
66495;BME280;53319;51.982;5.916;2022-07-10T10:22:13;102473.53;;;22.76;84.63
66495;BME280;53319;51.982;5.916;2022-07-10T10:24:42;102470.75;;;22.91;80.87
66495;BME280;53319;51.982;5.916;2022-07-10T10:27:15;102460.81;;;22.93;80.27
66495;BME280;53319;51.982;5.916;2022-07-10T10:29:45;102460.59;;;22.96;79.79
66495;BME280;53319;51.982;5.916;2022-07-10T10:32:16;102460.59;;;23.09;76.96
66495;BME280;53319;51.982;5.916;2022-07-10T10:34:46;102459.09;;;23.18;79.86
66495;BME280;53319;51.982;5.916;2022-07-10T10:37:35;102466.69;;;22.98;77.41
66495;BME280;53319;51.982;5.916;2022-07-10T10:40:08;102460.72;;;22.81;78.68
66495;BME280;53319;51.982;5.916;2022-07-10T10:42:41;102456.41;;;23.18;79.03
66495;BME280;53319;51.982;5.916;2022-07-10T10:45:24;102447.69;;;23.64;78.85
66495;BME280;53319;51.982;5.916;2022-07-10T10:48:00;102453.44;;;22.71;77.04
66495;BME280;53319;51.982;5.916;2022-07-10T10:50:40;102470.75;;;23.04;76.63
66495;BME280;53319;51.982;5.916;2022-07-10T10:53:13;102470.00;;;23.02;74.04
66495;BME280;53319;51.982;5.916;2022-07-10T10:58:45;102461.41;;;23.35;74.94
66495;BME280;53319;51.982;5.916;2022-07-10T11:01:26;102466.16;;;22.93;73.28
66495;BME280;53319;51.982;5.916;2022-07-10T11:04:14;102459.31;;;22.37;78.25
66495;BME280;53319;51.982;5.916;2022-07-10T11:06:45;102457.38;;;22.91;75.70
66495;BME280;53319;51.982;5.916;2022-07-10T11:09:24;102458.19;;;23.67;73.88
66495;BME280;53319;51.982;5.916;2022-07-10T11:12:00;102448.34;;;23.92;70.53
66495;BME280;53319;51.982;5.916;2022-07-10T11:14:34;102443.25;;;23.89;69.44
66495;BME280;53319;51.982;5.916;2022-07-10T11:17:05;102445.25;;;24.09;69.39
66495;BME280;53319;51.982;5.916;2022-07-10T11:19:34;102444.56;;;24.30;70.39
66495;BME280;53319;51.982;5.916;2022-07-10T11:25:18;102440.56;;;24.35;68.18
66495;BME280;53319;51.982;5.916;2022-07-10T11:28:06;102438.75;;;24.36;68.12
66495;BME280;53319;51.982;5.916;2022-07-10T11:30:50;102445.78;;;24.37;67.93
66495;BME280;53319;51.982;5.916;2022-07-10T11:33:20;102442.53;;;24.45;68.61
66495;BME280;53319;51.982;5.916;2022-07-10T11:35:50;102443.47;;;24.32;67.56
66495;BME280;53319;51.982;5.916;2022-07-10T11:38:21;102445.44;;;23.95;68.67
66495;BME280;53319;51.982;5.916;2022-07-10T11:40:51;102438.81;;;23.39;74.14
66495;BME280;53319;51.982;5.916;2022-07-10T11:43:22;102439.78;;;23.62;70.29
66495;BME280;53319;51.982;5.916;2022-07-10T11:45:55;102431.13;;;23.35;71.32
66495;BME280;53319;51.982;5.916;2022-07-10T11:48:27;102433.00;;;23.08;73.92
66495;BME280;53319;51.982;5.916;2022-07-10T11:50:56;102433.22;;;23.42;74.16
66495;BME280;53319;51.982;5.916;2022-07-10T11:53:26;102444.69;;;23.44;74.36
66495;BME280;53319;51.982;5.916;2022-07-10T11:55:55;102435.78;;;23.44;73.63
66495;BME280;53319;51.982;5.916;2022-07-10T11:58:24;102436.84;;;23.54;73.32
66495;BME280;53319;51.982;5.916;2022-07-10T12:01:03;102434.94;;;23.67;73.86
66495;BME280;53319;51.982;5.916;2022-07-10T12:03:34;102430.63;;;24.02;72.28
66495;BME280;53319;51.982;5.916;2022-07-10T12:06:04;102428.16;;;24.34;69.14
66495;BME280;53319;51.982;5.916;2022-07-10T12:08:43;102418.44;;;23.49;71.13
66495;BME280;53319;51.982;5.916;2022-07-10T12:11:13;102426.44;;;22.62;78.21
66495;BME280;53319;51.982;5.916;2022-07-10T12:13:44;102426.53;;;23.24;74.44
66495;BME280;53319;51.982;5.916;2022-07-10T12:16:16;102426.34;;;23.75;72.75
66495;BME280;53319;51.982;5.916;2022-07-10T12:18:45;102430.00;;;23.74;69.20
66495;BME280;53319;51.982;5.916;2022-07-10T12:21:15;102431.75;;;23.62;70.76
66495;BME280;53319;51.982;5.916;2022-07-10T12:23:44;102425.84;;;23.46;70.39
66495;BME280;53319;51.982;5.916;2022-07-10T12:26:14;102437.00;;;23.88;68.96
66495;BME280;53319;51.982;5.916;2022-07-10T12:28:51;102447.50;;;23.67;70.57
66495;BME280;53319;51.982;5.916;2022-07-10T12:31:25;102442.50;;;23.74;70.96
66495;BME280;53319;51.982;5.916;2022-07-10T12:33:56;102454.50;;;23.44;74.37
66495;BME280;53319;51.982;5.916;2022-07-10T12:36:41;102453.50;;;23.82;70.37
66495;BME280;53319;51.982;5.916;2022-07-10T12:39:12;102446.25;;;24.19;70.72
66495;BME280;53319;51.982;5.916;2022-07-10T12:41:55;102438.00;;;24.34;69.16
66495;BME280;53319;51.982;5.916;2022-07-10T12:44:35;102440.88;;;24.19;68.93
66495;BME280;53319;51.982;5.916;2022-07-10T12:47:07;102435.13;;;24.01;68.86
66495;BME280;53319;51.982;5.916;2022-07-10T12:49:51;102437.97;;;23.63;68.32
66495;BME280;53319;51.982;5.916;2022-07-10T12:52:22;102430.78;;;23.63;68.11
66495;BME280;53319;51.982;5.916;2022-07-10T12:55:05;102433.38;;;23.89;69.08
66495;BME280;53319;51.982;5.916;2022-07-10T12:57:48;102436.31;;;24.56;66.99
66495;BME280;53319;51.982;5.916;2022-07-10T13:00:18;102431.41;;;24.27;63.72
66495;BME280;53319;51.982;5.916;2022-07-10T13:02:57;102442.09;;;24.62;63.94
66495;BME280;53319;51.982;5.916;2022-07-10T13:05:28;102439.66;;;24.70;60.78
66495;BME280;53319;51.982;5.916;2022-07-10T13:08:05;102431.44;;;24.38;60.94
66495;BME280;53319;51.982;5.916;2022-07-10T13:10:37;102432.69;;;23.74;62.32
66495;BME280;53319;51.982;5.916;2022-07-10T13:13:07;102430.63;;;23.78;66.28